Akin, Illinois
Current Conditions -  °F | °C
As of 9:55 AM on Monday 24 Nov 2014 (Local Time) from KHSB Reporting Station
Overcast Overcast  
Wind Chill: 36°   Ceiling: 3500
Heat Index: 44°   Visibility: 10mi
Dew Point: 36°   Wind: 20mph
Humidity: 73%   Direction: 240°WSW
Pressure: 29.7"   Gusts: 24mph
Location:  37.99°N, 88.75°W
Report Text: KHSB 241555Z AUTO 24017G21KT 10SM OVC035 07/02 A2970 RMK AO2 T00680022
Loading
Personal Weather Stations






























Interactive Weather Map New forecast layout! Learn more

10-Day Weather Forecast

Advertisements
Track Severe Weather on mobile